Time;durP1;ratioP1;P1;durP2;ratioP2;P2;SDS_P1;SDS_P2;PMS_P1;PMS_P2;Temp;Humidity;BMP_temperature;BMP_pressure;BME280_temperature;BME280_humidity;BME280_pressure;Samples;Min_cycle;Max_cycle;Signal;HPM_P1;HPM_P2
2024/01/05 08:35:20;;;;;;;5.72;1.38;;;;;;;4.11;89.32;95306.78;2118898;27;21073;-75
2024/01/05 08:36:21;;;;;;;9.18;2.15;;;;;;;4.25;89.07;95317.41;2097559;27;20222;-75
2024/01/05 08:37:24;;;;;;;8.55;1.30;;;;;;;4.27;89.14;95307.00;2097350;28;20214;-75
2024/01/05 08:41:21;;;;;;;7.28;1.58;;;;;;;4.57;88.20;95312.63;2081622;27;20561;-75
2024/01/05 08:42:22;;;;;;;3.42;1.65;;;;;;;4.64;87.69;95310.66;2081419;28;20193;-75
2024/01/05 08:43:27;;;;;;;6.88;1.40;;;;;;;5.23;85.89;95314.97;2083315;28;20200;-75
2024/01/05 08:44:35;;;;;;;4.38;1.23;;;;;;;5.88;83.56;95311.16;2086121;28;20314;-76
2024/01/05 08:45:37;;;;;;;4.97;1.60;;;;;;;6.02;82.64;95319.13;2085589;28;20251;-76
2024/01/05 08:46:38;;;;;;;5.68;1.60;;;;;;;6.05;81.78;95316.38;2082371;28;20196;-77
2024/01/05 08:47:40;;;;;;;7.15;1.83;;;;;;;6.49;80.79;95304.78;2082233;28;20201;-76
2024/01/05 08:48:45;;;;;;;7.70;1.80;;;;;;;7.54;77.91;95314.09;2088305;28;20211;-76
2024/01/05 08:49:47;;;;;;;4.88;1.70;;;;;;;8.36;74.21;95293.16;2082460;28;20209;-76
2024/01/05 08:50:48;;;;;;;6.28;2.00;;;;;;;9.58;71.39;95312.00;2080952;28;20255;-76
2024/01/05 08:51:50;;;;;;;6.30;2.10;;;;;;;9.98;69.42;95317.34;2078479;28;20246;-75
2024/01/05 08:52:52;;;;;;;9.57;1.77;;;;;;;10.28;67.60;95305.84;2081842;28;20225;-76
2024/01/05 08:53:54;;;;;;;7.68;1.33;;;;;;;10.76;66.38;95306.19;2085353;28;20231;-75
2024/01/05 08:54:55;;;;;;;7.10;1.70;;;;;;;10.68;65.20;95305.88;2086329;28;20199;-69
2024/01/05 08:55:56;;;;;;;3.63;1.63;;;;;;;11.04;65.23;95311.34;2080041;28;20309;-69
2024/01/05 08:56:58;;;;;;;7.50;1.50;;;;;;;10.73;65.08;95310.81;2079890;28;20804;-69
2024/01/05 08:58:00;;;;;;;16.67;1.50;;;;;;;10.36;65.86;95315.81;2083645;28;20205;-69
2024/01/05 08:59:01;;;;;;;5.32;1.50;;;;;;;10.19;66.40;95312.50;2082434;28;20202;-69
2024/01/05 09:00:03;;;;;;;3.85;1.50;;;;;;;9.70;67.73;95316.47;2080954;28;20283;-69
2024/01/05 09:01:05;;;;;;;3.25;1.45;;;;;;;9.47;68.14;95310.03;2078617;28;20234;-69
2024/01/05 09:02:07;;;;;;;6.10;2.00;;;;;;;9.46;68.80;95297.97;2081808;28;20208;-69
2024/01/05 09:03:09;;;;;;;2.88;1.10;;;;;;;9.17;69.37;95313.59;2086416;28;20242;-69
2024/01/05 09:04:11;;;;;;;5.00;1.55;;;;;;;9.24;69.58;95308.84;2088922;28;20209;-69
2024/01/05 09:05:12;;;;;;;7.10;1.88;;;;;;;9.02;70.55;95309.31;2084379;28;20298;-69
2024/01/05 09:06:14;;;;;;;6.72;2.28;;;;;;;9.12;70.50;95315.66;2082734;28;20318;-69
2024/01/05 09:07:16;;;;;;;9.55;1.92;;;;;;;8.87;70.94;95304.06;2081581;28;20263;-69
2024/01/05 09:08:18;;;;;;;5.00;1.73;;;;;;;9.01;69.97;95310.25;2081806;28;20298;-69
2024/01/05 09:09:19;;;;;;;7.60;1.80;;;;;;;8.87;70.79;95317.09;2082335;28;20228;-76
2024/01/05 09:10:21;;;;;;;13.73;2.20;;;;;;;8.61;71.55;95314.25;2078364;28;20193;-76
2024/01/05 09:11:22;;;;;;;6.30;1.70;;;;;;;8.58;72.44;95324.00;2078955;28;20728;-76
2024/01/05 09:12:25;;;;;;;7.65;1.40;;;;;;;8.80;71.63;95308.00;2083201;28;20234;-76
2024/01/05 09:13:26;;;;;;;5.82;1.60;;;;;;;8.23;72.30;95306.00;2081374;28;20229;-76
2024/01/05 09:14:28;;;;;;;6.45;1.60;;;;;;;7.96;73.99;95322.22;2082123;28;20198;-75
2024/01/05 09:15:29;;;;;;;5.38;1.58;;;;;;;7.55;75.25;95318.38;2081871;28;20662;-75
2024/01/05 09:16:31;;;;;;;2.30;1.20;;;;;;;7.24;76.38;95308.78;2081322;28;20737;-76
2024/01/05 09:17:32;;;;;;;6.95;2.03;;;;;;;7.22;76.86;95313.22;2081134;28;20198;-75
2024/01/05 09:18:40;;;;;;;14.93;1.10;;;;;;;7.00;77.78;95314.34;2082000;28;20205;-76
2024/01/05 09:19:42;;;;;;;6.68;1.80;;;;;;;6.76;77.72;95296.50;2082324;28;20210;-68
2024/01/05 09:20:51;;;;;;;6.55;2.13;;;;;;;6.85;78.04;95310.78;2083128;28;20220;-68
2024/01/05 09:21:55;;;;;;;12.15;1.98;;;;;;;6.76;78.97;95321.63;2082059;28;20197;-68
2024/01/05 09:22:58;;;;;;;3.03;1.40;;;;;;;6.63;79.08;95319.66;2082173;28;20197;-68
2024/01/05 09:23:59;;;;;;;4.85;1.60;;;;;;;6.62;79.41;95323.16;2082748;28;20236;-69
2024/01/05 09:25:01;;;;;;;5.18;1.50;;;;;;;6.37;80.05;95329.56;2074225;28;20193;-70
2024/01/05 09:26:03;;;;;;;7.80;1.75;;;;;;;6.37;80.47;95334.75;2077019;28;20224;-69
2024/01/05 09:27:05;;;;;;;4.13;1.73;;;;;;;6.32;80.96;95336.72;2076703;28;20197;-69
2024/01/05 09:28:06;;;;;;;4.95;1.73;;;;;;;6.34;80.31;95340.06;2074032;28;20198;-69
2024/01/05 09:29:08;;;;;;;10.95;1.77;;;;;;;6.33;80.68;95337.56;2074615;28;20676;-67
2024/01/05 09:30:10;;;;;;;3.33;1.83;;;;;;;6.19;81.34;95331.28;2077668;28;20236;-68
2024/01/05 09:31:12;;;;;;;6.95;1.52;;;;;;;6.36;81.20;95340.00;2083001;28;20695;-68
2024/01/05 09:32:15;;;;;;;8.43;2.45;;;;;;;6.59;80.70;95340.63;2082721;28;20207;-68
2024/01/05 09:33:18;;;;;;;5.50;2.40;;;;;;;7.01;79.45;95332.44;2083294;28;20287;-68
2024/01/05 09:34:20;;;;;;;4.05;1.75;;;;;;;7.13;78.36;95330.94;2080146;28;20220;-68
2024/01/05 09:35:22;;;;;;;5.80;1.80;;;;;;;7.16;78.73;95335.13;2082317;28;20259;-69
2024/01/05 09:36:24;;;;;;;5.65;1.88;;;;;;;7.50;77.48;95335.97;2080144;28;20232;-69
2024/01/05 09:37:25;;;;;;;5.25;1.70;;;;;;;7.50;76.83;95338.56;2079900;28;20767;-68
2024/01/05 09:38:27;;;;;;;12.07;2.20;;;;;;;7.07;77.70;95340.81;2080106;28;20220;-68
2024/01/05 09:39:28;;;;;;;5.32;2.20;;;;;;;7.02;78.25;95349.69;2081958;28;20212;-68
2024/01/05 09:40:34;;;;;;;5.38;1.70;;;;;;;6.82;79.01;95344.69;2079045;28;20215;-68
2024/01/05 09:41:36;;;;;;;5.85;1.50;;;;;;;6.81;79.56;95343.00;2080590;28;20225;-68
2024/01/05 09:42:41;;;;;;;5.32;1.63;;;;;;;6.66;79.99;95348.00;2083246;28;20242;-68
2024/01/05 09:43:47;;;;;;;5.57;1.70;;;;;;;6.52;80.15;95320.16;2081324;28;20228;-68
2024/01/05 09:44:51;;;;;;;4.40;1.50;;;;;;;6.94;79.07;95349.22;2081567;28;20589;-68
2024/01/05 09:45:55;;;;;;;6.07;2.10;;;;;;;7.18;78.20;95341.09;2079854;28;20223;-68
2024/01/05 09:46:57;;;;;;;7.65;1.90;;;;;;;7.34;78.58;95354.97;2082532;28;20648;-68
2024/01/05 09:48:00;;;;;;;8.68;2.70;;;;;;;7.55;77.78;95359.94;2082006;28;20846;-68
2024/01/05 09:49:03;;;;;;;4.25;1.52;;;;;;;7.95;76.08;95346.56;2082059;28;20204;-68
2024/01/05 09:50:08;;;;;;;8.30;1.88;;;;;;;8.18;74.78;95353.09;2081887;28;20792;-68
2024/01/05 09:51:10;;;;;;;4.90;1.50;;;;;;;8.35;74.30;95352.13;2081646;28;20221;-68
2024/01/05 09:52:12;;;;;;;8.27;1.40;;;;;;;8.80;73.44;95353.06;2078886;28;20247;-69
2024/01/05 09:53:16;;;;;;;7.03;1.95;;;;;;;8.83;72.63;95352.88;2075424;28;20197;-68
2024/01/05 09:54:17;;;;;;;5.40;1.60;;;;;;;8.39;73.82;95351.03;2076025;28;20197;-68
2024/01/05 09:55:19;;;;;;;8.32;1.80;;;;;;;8.31;74.02;95348.03;2076427;28;20204;-68
2024/01/05 09:56:22;;;;;;;8.77;2.13;;;;;;;8.24;74.83;95341.50;2076400;28;20213;-69
2024/01/05 09:57:25;;;;;;;4.95;1.80;;;;;;;7.90;75.20;95339.00;2076098;28;20206;-68
2024/01/05 09:58:27;;;;;;;3.25;1.27;;;;;;;7.65;76.40;95344.69;2073542;28;20206;-68
2024/01/05 09:59:29;;;;;;;4.22;1.40;;;;;;;7.53;76.60;95341.00;2074540;28;20189;-68
2024/01/05 10:00:32;;;;;;;6.80;2.00;;;;;;;7.44;77.36;95357.06;2078395;28;20344;-68
2024/01/05 10:01:34;;;;;;;6.85;1.85;;;;;;;7.38;77.98;95347.00;2079164;28;20224;-68
2024/01/05 10:02:44;;;;;;;9.55;1.88;;;;;;;7.20;77.82;95349.66;2081892;28;20212;-68
2024/01/05 10:03:46;;;;;;;5.10;1.55;;;;;;;6.99;79.29;95357.59;2077450;28;20820;-68
2024/01/05 10:04:48;;;;;;;8.50;1.20;;;;;;;6.98;79.17;95347.31;2076143;28;20202;-68
2024/01/05 10:05:58;;;;;;;7.68;2.30;;;;;;;6.81;79.48;95349.00;2074426;28;20282;-68
2024/01/05 10:07:04;;;;;;;7.47;1.60;;;;;;;6.65;80.42;95343.78;2071371;28;20293;-67
2024/01/05 10:08:10;;;;;;;6.85;1.63;;;;;;;6.60;80.71;95348.34;2070975;28;20569;-68
2024/01/05 10:09:12;;;;;;;7.57;1.70;;;;;;;6.50;80.88;95350.53;2064146;28;20721;-68
2024/01/05 10:10:13;;;;;;;8.63;1.52;;;;;;;6.41;81.50;95348.38;2068531;28;20656;-67
2024/01/05 10:11:31;;;;;;;3.03;1.25;;;;;;;6.32;82.30;95349.69;2072628;28;20221;-67
2024/01/05 10:12:39;;;;;;;10.98;1.85;;;;;;;6.27;82.71;95343.91;2075954;28;20260;-68
2024/01/05 10:13:53;;;;;;;3.60;1.20;;;;;;;6.21;83.36;95349.38;2079387;28;20300;-67
2024/01/05 10:15:04;;;;;;;6.25;1.35;;;;;;;6.18;83.13;95344.31;2080807;28;20713;-68
2024/01/05 10:16:05;;;;;;;4.40;1.30;;;;;;;6.14;83.58;95350.56;2075412;28;20217;-68
2024/01/05 10:17:08;;;;;;;7.00;1.50;;;;;;;6.15;83.54;95352.25;2072887;28;20223;-68
2024/01/05 10:18:16;;;;;;;5.43;1.80;;;;;;;6.12;83.79;95352.38;2075058;28;20206;-67
2024/01/05 10:29:43;;;;;;;5.47;1.70;;;;;;;5.89;85.54;95347.34;2081781;28;20562;-75
2024/01/05 10:30:45;;;;;;;10.85;2.45;;;;;;;5.95;85.81;95343.63;2080210;28;20231;-75
2024/01/05 10:31:47;;;;;;;6.75;1.80;;;;;;;6.03;85.52;95348.47;2078581;28;20702;-75
2024/01/05 10:33:01;;;;;;;10.00;2.15;;;;;;;6.08;85.51;95350.84;2078476;28;20262;-75
2024/01/05 10:38:44;;;;;;;5.78;2.17;;;;;;;6.15;85.10;95339.28;2083189;28;20571;-67
2024/01/05 10:39:46;;;;;;;7.20;2.22;;;;;;;6.17;85.15;95333.13;2082734;28;20566;-68
2024/01/05 10:40:48;;;;;;;5.80;1.70;;;;;;;6.23;85.18;95337.16;2074664;28;20341;-68
2024/01/05 10:41:51;;;;;;;7.45;1.98;;;;;;;6.27;85.00;95330.94;2074287;28;20213;-68
2024/01/05 10:43:06;;;;;;;8.68;1.95;;;;;;;6.38;85.01;95336.41;2073383;28;20194;-68
2024/01/05 10:47:47;;;;;;;8.35;1.60;;;;;;;6.31;84.66;95323.81;2114755;27;20541;-66
2024/01/05 10:48:49;;;;;;;8.82;1.90;;;;;;;6.34;84.73;95329.69;2112377;28;20189;-66
2024/01/05 10:49:54;;;;;;;7.45;2.00;;;;;;;6.41;84.36;95329.41;2112554;28;20658;-66
2024/01/05 10:50:58;;;;;;;8.35;1.92;;;;;;;6.43;84.85;95333.59;2104182;27;20229;-67
2024/01/05 10:55:24;;;;;;;6.38;1.90;;;;;;;6.47;84.48;95329.09;2084966;28;20552;-67
2024/01/05 10:56:28;;;;;;;5.38;1.40;;;;;;;6.50;84.53;95329.78;2078582;28;20649;-68
2024/01/05 11:01:30;;;;;;;7.55;2.00;;;;;;;6.43;84.80;95325.00;2083260;28;20570;-74
2024/01/05 11:06:51;;;;;;;8.18;2.00;;;;;;;6.39;85.34;95303.56;2084827;28;20576;-68
2024/01/05 11:12:21;;;;;;;13.35;1.75;;;;;;;6.43;85.03;95301.66;2101432;27;20541;-73
2024/01/05 11:17:01;;;;;;;6.93;2.50;;;;;;;6.64;85.43;95310.09;2083670;28;20586;-73
2024/01/05 11:21:41;;;;;;;5.85;2.08;;;;;;;6.68;85.55;95299.50;2082248;28;20333;-68
2024/01/05 11:26:34;;;;;;;9.95;2.17;;;;;;;6.65;85.07;95312.63;2107521;27;20582;-71
2024/01/05 11:31:55;;;;;;;6.63;2.33;;;;;;;6.56;86.29;95307.06;2084911;28;20583;-71
2024/01/05 11:41:57;;;;;;;6.82;2.15;;;;;;;6.54;86.96;95300.19;2084036;27;20544;-71
2024/01/05 11:43:29;;;;;;;9.82;2.30;;;;;;;6.56;88.02;95300.09;2079291;28;20220;-71
2024/01/05 11:58:22;;;;;;;9.15;4.47;;;;;;;6.65;88.21;95281.50;2084499;28;20560;-68
2024/01/05 11:59:23;;;;;;;10.70;3.97;;;;;;;6.58;88.37;95267.16;2080503;28;20292;-69
2024/01/05 12:09:39;;;;;;;6.25;2.03;;;;;;;6.75;87.83;95291.41;2084623;28;20589;-70
2024/01/05 12:18:00;;;;;;;9.85;3.17;;;;;;;6.64;87.99;95297.97;2082626;28;20559;-70
2024/01/05 12:24:55;;;;;;;3.90;1.80;;;;;;;6.67;88.39;95287.44;2083547;28;20579;-72
2024/01/05 12:31:07;;;;;;;9.98;2.05;;;;;;;6.65;88.47;95284.09;2093192;27;20568;-71
2024/01/05 12:37:54;;;;;;;7.28;1.55;;;;;;;6.66;88.68;95274.56;2099769;27;20895;-72
2024/01/05 12:44:50;;;;;;;7.63;1.85;;;;;;;6.60;88.76;95238.53;2092520;28;20524;-72
2024/01/05 12:51:07;;;;;;;5.93;1.73;;;;;;;6.84;88.41;95239.88;2095735;27;20589;-71
2024/01/05 12:56:54;;;;;;;7.68;2.00;;;;;;;6.97;87.63;95234.03;2111981;27;20563;-68
2024/01/05 13:02:19;;;;;;;4.85;1.70;;;;;;;7.07;87.37;95224.00;2100076;27;20571;-71
2024/01/05 13:08:34;;;;;;;8.10;2.25;;;;;;;7.09;87.08;95227.38;2100902;27;20580;-69
2024/01/05 13:15:14;;;;;;;8.38;2.25;;;;;;;7.05;87.24;95218.03;2100890;27;20550;-70
2024/01/05 13:22:16;;;;;;;7.25;2.17;;;;;;;7.13;87.46;95242.69;2085621;28;20553;-72
